Terminal Aerodrome Forecast
Issued by NWS

Home | Current Version | Previous Version | Text Only | Print | Product List | Glossary On
Versions: 1 2 3 4 5 6 7 8 9 10 11 12 13 14 15 16 17 18 19 20 21 22 23 24 25 26
000
FTPA31 PHFO 230500
TAFKOA
TAF
PHKO 230535Z 2306/2406 15005KT P6SM SCT050 SCT200
     FM231100 VRB03KT P6SM FEW050 SCT200
     FM232000 24008KT P6SM SCT050=

USA.gov is the U.S. government's official web portal to all federal, state and local government web resources and services.